sensor_id;sensor_type;location;lat;lon;timestamp;pressure;altitude;pressure_sealevel;temperature;humidity
74905;BME280;63465;50.862;6.220;2023-06-10T00:00:38;99707.97;;;20.18;83.27
74905;BME280;63465;50.862;6.220;2023-06-10T00:03:04;99708.56;;;20.22;82.52
74905;BME280;63465;50.862;6.220;2023-06-10T00:05:29;99708.69;;;20.20;83.03
74905;BME280;63465;50.862;6.220;2023-06-10T00:07:56;99706.28;;;20.17;83.31
74905;BME280;63465;50.862;6.220;2023-06-10T00:10:23;99702.69;;;20.07;84.53
74905;BME280;63465;50.862;6.220;2023-06-10T00:12:49;99706.09;;;20.09;84.52
74905;BME280;63465;50.862;6.220;2023-06-10T00:15:15;99708.38;;;20.13;84.78
74905;BME280;63465;50.862;6.220;2023-06-10T00:17:40;99709.41;;;20.22;84.44
74905;BME280;63465;50.862;6.220;2023-06-10T00:20:09;99706.69;;;20.12;84.69
74905;BME280;63465;50.862;6.220;2023-06-10T00:22:37;99713.31;;;20.08;85.73
74905;BME280;63465;50.862;6.220;2023-06-10T00:25:04;99702.44;;;20.20;84.31
74905;BME280;63465;50.862;6.220;2023-06-10T00:27:29;99713.22;;;19.79;87.23
74905;BME280;63465;50.862;6.220;2023-06-10T00:30:03;99704.13;;;18.84;94.09
74905;BME280;63465;50.862;6.220;2023-06-10T00:32:29;99707.44;;;18.88;95.30
74905;BME280;63465;50.862;6.220;2023-06-10T00:34:55;99707.09;;;18.81;96.90
74905;BME280;63465;50.862;6.220;2023-06-10T00:37:20;99706.13;;;18.71;97.91
74905;BME280;63465;50.862;6.220;2023-06-10T00:39:45;99711.88;;;18.78;97.63
74905;BME280;63465;50.862;6.220;2023-06-10T00:42:11;99708.31;;;18.77;97.12
74905;BME280;63465;50.862;6.220;2023-06-10T00:44:36;99708.63;;;18.63;97.90
74905;BME280;63465;50.862;6.220;2023-06-10T00:47:02;99714.06;;;18.84;97.38
74905;BME280;63465;50.862;6.220;2023-06-10T00:49:27;99717.31;;;18.55;99.70
74905;BME280;63465;50.862;6.220;2023-06-10T00:51:53;99707.16;;;19.02;96.60
74905;BME280;63465;50.862;6.220;2023-06-10T00:54:18;99721.50;;;18.80;97.27
74905;BME280;63465;50.862;6.220;2023-06-10T00:56:44;99721.44;;;19.03;95.40
74905;BME280;63465;50.862;6.220;2023-06-10T00:59:10;99716.84;;;18.94;96.24
74905;BME280;63465;50.862;6.220;2023-06-10T01:01:36;99722.25;;;18.71;98.24
74905;BME280;63465;50.862;6.220;2023-06-10T01:04:03;99721.28;;;19.16;96.05
74905;BME280;63465;50.862;6.220;2023-06-10T01:09:33;99723.09;;;18.83;98.30
74905;BME280;63465;50.862;6.220;2023-06-10T01:12:16;99720.47;;;19.04;96.67
74905;BME280;63465;50.862;6.220;2023-06-10T01:14:44;99718.56;;;18.83;98.25
74905;BME280;63465;50.862;6.220;2023-06-10T01:17:10;99709.59;;;19.05;96.93
74905;BME280;63465;50.862;6.220;2023-06-10T01:19:36;99713.50;;;19.01;96.79
74905;BME280;63465;50.862;6.220;2023-06-10T01:22:01;99718.28;;;18.65;99.84
74905;BME280;63465;50.862;6.220;2023-06-10T01:24:28;99715.88;;;18.83;99.07
74905;BME280;63465;50.862;6.220;2023-06-10T01:26:55;99718.00;;;18.68;100.00
74905;BME280;63465;50.862;6.220;2023-06-10T01:29:32;99716.75;;;18.84;100.00
74905;BME280;63465;50.862;6.220;2023-06-10T01:32:23;99721.50;;;18.80;100.00
74905;BME280;63465;50.862;6.220;2023-06-10T01:34:52;99717.91;;;18.59;100.00
74905;BME280;63465;50.862;6.220;2023-06-10T01:37:19;99715.03;;;18.83;100.00
74905;BME280;63465;50.862;6.220;2023-06-10T01:39:47;99714.75;;;18.97;99.23
74905;BME280;63465;50.862;6.220;2023-06-10T01:42:13;99710.41;;;18.85;98.95
74905;BME280;63465;50.862;6.220;2023-06-10T01:44:39;99716.75;;;18.84;99.59
74905;BME280;63465;50.862;6.220;2023-06-10T01:47:05;99716.53;;;18.87;99.04
74905;BME280;63465;50.862;6.220;2023-06-10T01:49:30;99720.28;;;18.84;99.28
74905;BME280;63465;50.862;6.220;2023-06-10T01:51:56;99723.34;;;18.80;99.59
74905;BME280;63465;50.862;6.220;2023-06-10T01:54:21;99714.03;;;18.40;100.00
74905;BME280;63465;50.862;6.220;2023-06-10T01:56:46;99720.81;;;18.12;100.00
74905;BME280;63465;50.862;6.220;2023-06-10T01:59:11;99734.75;;;17.59;100.00
74905;BME280;63465;50.862;6.220;2023-06-10T02:01:37;99733.75;;;17.48;100.00
74905;BME280;63465;50.862;6.220;2023-06-10T02:04:02;99730.34;;;17.46;100.00
74905;BME280;63465;50.862;6.220;2023-06-10T02:06:27;99731.19;;;17.94;100.00
74905;BME280;63465;50.862;6.220;2023-06-10T02:08:53;99727.00;;;18.35;100.00
74905;BME280;63465;50.862;6.220;2023-06-10T02:11:18;99724.31;;;18.24;100.00
74905;BME280;63465;50.862;6.220;2023-06-10T02:13:43;99728.59;;;18.26;100.00
74905;BME280;63465;50.862;6.220;2023-06-10T02:16:09;99727.50;;;18.17;100.00
74905;BME280;63465;50.862;6.220;2023-06-10T02:18:39;99726.75;;;18.38;100.00
74905;BME280;63465;50.862;6.220;2023-06-10T02:21:06;99718.44;;;18.41;100.00
74905;BME280;63465;50.862;6.220;2023-06-10T02:23:32;99719.16;;;18.43;100.00
74905;BME280;63465;50.862;6.220;2023-06-10T02:25:57;99727.72;;;18.37;100.00
74905;BME280;63465;50.862;6.220;2023-06-10T02:28:22;99728.19;;;18.42;100.00
74905;BME280;63465;50.862;6.220;2023-06-10T02:30:47;99729.94;;;18.32;100.00
74905;BME280;63465;50.862;6.220;2023-06-10T02:33:13;99731.78;;;18.20;100.00
74905;BME280;63465;50.862;6.220;2023-06-10T02:35:39;99734.22;;;18.23;100.00
74905;BME280;63465;50.862;6.220;2023-06-10T02:38:04;99736.53;;;18.05;100.00
74905;BME280;63465;50.862;6.220;2023-06-10T02:40:30;99732.63;;;18.21;100.00
74905;BME280;63465;50.862;6.220;2023-06-10T02:42:55;99736.16;;;17.87;100.00
74905;BME280;63465;50.862;6.220;2023-06-10T02:45:20;99734.56;;;17.85;100.00
74905;BME280;63465;50.862;6.220;2023-06-10T02:47:45;99740.44;;;17.90;100.00
74905;BME280;63465;50.862;6.220;2023-06-10T02:50:11;99738.75;;;18.00;100.00
74905;BME280;63465;50.862;6.220;2023-06-10T02:52:37;99732.75;;;18.08;100.00
74905;BME280;63465;50.862;6.220;2023-06-10T02:55:02;99734.34;;;18.10;100.00
74905;BME280;63465;50.862;6.220;2023-06-10T02:57:27;99732.56;;;17.64;100.00
74905;BME280;63465;50.862;6.220;2023-06-10T02:59:52;99732.66;;;17.40;100.00
74905;BME280;63465;50.862;6.220;2023-06-10T03:02:18;99736.91;;;17.31;100.00
74905;BME280;63465;50.862;6.220;2023-06-10T03:04:44;99732.34;;;17.20;100.00
74905;BME280;63465;50.862;6.220;2023-06-10T03:07:10;99739.38;;;17.45;100.00
74905;BME280;63465;50.862;6.220;2023-06-10T03:09:36;99731.34;;;17.57;100.00
74905;BME280;63465;50.862;6.220;2023-06-10T03:12:02;99738.41;;;17.58;100.00
74905;BME280;63465;50.862;6.220;2023-06-10T03:14:27;99731.59;;;17.76;100.00
74905;BME280;63465;50.862;6.220;2023-06-10T03:16:52;99741.53;;;17.87;100.00
74905;BME280;63465;50.862;6.220;2023-06-10T03:19:18;99738.69;;;17.77;100.00
74905;BME280;63465;50.862;6.220;2023-06-10T03:21:44;99743.06;;;17.56;100.00
74905;BME280;63465;50.862;6.220;2023-06-10T03:24:09;99738.69;;;17.66;100.00
74905;BME280;63465;50.862;6.220;2023-06-10T03:26:36;99740.63;;;17.64;100.00
74905;BME280;63465;50.862;6.220;2023-06-10T03:29:01;99743.69;;;17.71;100.00
74905;BME280;63465;50.862;6.220;2023-06-10T03:31:27;99747.94;;;17.51;100.00
74905;BME280;63465;50.862;6.220;2023-06-10T03:33:52;99752.16;;;17.42;100.00
74905;BME280;63465;50.862;6.220;2023-06-10T03:36:17;99754.25;;;17.38;100.00
74905;BME280;63465;50.862;6.220;2023-06-10T03:38:42;99754.84;;;17.42;100.00
74905;BME280;63465;50.862;6.220;2023-06-10T03:41:08;99754.50;;;17.46;100.00
74905;BME280;63465;50.862;6.220;2023-06-10T03:43:33;99756.16;;;17.36;100.00
74905;BME280;63465;50.862;6.220;2023-06-10T03:45:59;99754.06;;;17.28;100.00
74905;BME280;63465;50.862;6.220;2023-06-10T03:48:24;99752.28;;;17.40;100.00
74905;BME280;63465;50.862;6.220;2023-06-10T03:50:49;99764.31;;;16.99;100.00
74905;BME280;63465;50.862;6.220;2023-06-10T03:53:16;99761.78;;;17.09;100.00
74905;BME280;63465;50.862;6.220;2023-06-10T03:55:41;99764.81;;;16.80;100.00
74905;BME280;63465;50.862;6.220;2023-06-10T03:58:07;99762.22;;;16.91;100.00
74905;BME280;63465;50.862;6.220;2023-06-10T04:00:32;99763.47;;;17.34;100.00
74905;BME280;63465;50.862;6.220;2023-06-10T04:03:06;99775.16;;;16.98;100.00
74905;BME280;63465;50.862;6.220;2023-06-10T04:05:34;99773.34;;;16.85;100.00
74905;BME280;63465;50.862;6.220;2023-06-10T04:07:59;99768.59;;;17.02;100.00
74905;BME280;63465;50.862;6.220;2023-06-10T04:10:26;99769.28;;;17.17;100.00
74905;BME280;63465;50.862;6.220;2023-06-10T04:12:51;99766.25;;;17.68;100.00
74905;BME280;63465;50.862;6.220;2023-06-10T04:15:17;99773.06;;;17.61;100.00
74905;BME280;63465;50.862;6.220;2023-06-10T04:17:43;99769.56;;;17.83;100.00
74905;BME280;63465;50.862;6.220;2023-06-10T04:20:08;99768.69;;;17.71;100.00
74905;BME280;63465;50.862;6.220;2023-06-10T04:22:35;99772.09;;;17.73;100.00
74905;BME280;63465;50.862;6.220;2023-06-10T04:25:00;99777.72;;;17.70;100.00
74905;BME280;63465;50.862;6.220;2023-06-10T04:27:25;99776.63;;;17.73;100.00
74905;BME280;63465;50.862;6.220;2023-06-10T04:29:51;99776.63;;;17.61;100.00
74905;BME280;63465;50.862;6.220;2023-06-10T04:32:16;99780.47;;;17.93;100.00
74905;BME280;63465;50.862;6.220;2023-06-10T04:34:41;99779.47;;;17.82;100.00
74905;BME280;63465;50.862;6.220;2023-06-10T04:37:09;99779.63;;;17.92;100.00
74905;BME280;63465;50.862;6.220;2023-06-10T04:39:34;99779.00;;;18.00;100.00
74905;BME280;63465;50.862;6.220;2023-06-10T04:41:59;99780.00;;;18.22;100.00
74905;BME280;63465;50.862;6.220;2023-06-10T04:44:25;99777.81;;;18.15;100.00
74905;BME280;63465;50.862;6.220;2023-06-10T04:46:51;99774.00;;;18.29;100.00
74905;BME280;63465;50.862;6.220;2023-06-10T04:49:16;99767.16;;;18.48;100.00
74905;BME280;63465;50.862;6.220;2023-06-10T04:51:41;99777.28;;;18.33;100.00
74905;BME280;63465;50.862;6.220;2023-06-10T04:54:07;99781.97;;;18.20;100.00
74905;BME280;63465;50.862;6.220;2023-06-10T04:56:33;99777.06;;;18.25;100.00
74905;BME280;63465;50.862;6.220;2023-06-10T04:58:59;99777.91;;;18.36;100.00
74905;BME280;63465;50.862;6.220;2023-06-10T05:01:24;99778.41;;;18.42;100.00
74905;BME280;63465;50.862;6.220;2023-06-10T05:03:50;99778.75;;;18.60;100.00
74905;BME280;63465;50.862;6.220;2023-06-10T05:06:15;99778.25;;;18.66;100.00
74905;BME280;63465;50.862;6.220;2023-06-10T05:08:41;99777.06;;;18.47;100.00
74905;BME280;63465;50.862;6.220;2023-06-10T05:11:06;99766.75;;;18.75;100.00
74905;BME280;63465;50.862;6.220;2023-06-10T05:13:32;99766.16;;;18.71;100.00
74905;BME280;63465;50.862;6.220;2023-06-10T05:15:57;99768.44;;;18.76;100.00
74905;BME280;63465;50.862;6.220;2023-06-10T05:18:23;99772.59;;;18.92;100.00
74905;BME280;63465;50.862;6.220;2023-06-10T05:20:48;99772.09;;;18.98;100.00
74905;BME280;63465;50.862;6.220;2023-06-10T05:23:14;99773.63;;;19.12;100.00
74905;BME280;63465;50.862;6.220;2023-06-10T05:25:39;99777.66;;;19.06;100.00
74905;BME280;63465;50.862;6.220;2023-06-10T05:28:05;99772.78;;;19.11;100.00
74905;BME280;63465;50.862;6.220;2023-06-10T05:30:34;99778.88;;;19.13;100.00
74905;BME280;63465;50.862;6.220;2023-06-10T05:33:00;99782.16;;;19.17;100.00
74905;BME280;63465;50.862;6.220;2023-06-10T05:35:25;99775.09;;;19.37;100.00
74905;BME280;63465;50.862;6.220;2023-06-10T05:37:50;99778.97;;;19.44;100.00
74905;BME280;63465;50.862;6.220;2023-06-10T05:40:15;99778.13;;;19.43;100.00
74905;BME280;63465;50.862;6.220;2023-06-10T05:42:41;99781.69;;;19.65;100.00
74905;BME280;63465;50.862;6.220;2023-06-10T05:45:06;99776.47;;;19.52;100.00
74905;BME280;63465;50.862;6.220;2023-06-10T05:47:32;99785.47;;;19.63;100.00
74905;BME280;63465;50.862;6.220;2023-06-10T05:49:57;99787.53;;;19.91;100.00
74905;BME280;63465;50.862;6.220;2023-06-10T05:52:22;99788.97;;;19.95;100.00
74905;BME280;63465;50.862;6.220;2023-06-10T05:54:49;99793.22;;;19.98;100.00
74905;BME280;63465;50.862;6.220;2023-06-10T05:57:15;99791.41;;;19.99;100.00
74905;BME280;63465;50.862;6.220;2023-06-10T05:59:40;99780.09;;;20.05;100.00
74905;BME280;63465;50.862;6.220;2023-06-10T06:02:05;99789.56;;;19.99;100.00
74905;BME280;63465;50.862;6.220;2023-06-10T06:04:31;99791.03;;;20.13;100.00
74905;BME280;63465;50.862;6.220;2023-06-10T06:06:57;99791.28;;;20.41;100.00
74905;BME280;63465;50.862;6.220;2023-06-10T06:09:22;99791.69;;;20.26;100.00
74905;BME280;63465;50.862;6.220;2023-06-10T06:11:47;99790.47;;;20.50;100.00
74905;BME280;63465;50.862;6.220;2023-06-10T06:14:13;99791.41;;;20.29;100.00
74905;BME280;63465;50.862;6.220;2023-06-10T06:16:38;99791.00;;;20.34;100.00
74905;BME280;63465;50.862;6.220;2023-06-10T06:19:03;99794.00;;;20.41;98.53
74905;BME280;63465;50.862;6.220;2023-06-10T06:21:29;99792.16;;;20.72;96.58
74905;BME280;63465;50.862;6.220;2023-06-10T06:23:54;99802.84;;;20.53;97.57
74905;BME280;63465;50.862;6.220;2023-06-10T06:26:19;99804.56;;;20.63;98.32
74905;BME280;63465;50.862;6.220;2023-06-10T06:28:45;99795.84;;;20.81;97.35
74905;BME280;63465;50.862;6.220;2023-06-10T06:31:11;99797.69;;;20.80;96.62
74905;BME280;63465;50.862;6.220;2023-06-10T06:33:36;99795.16;;;20.98;95.57
74905;BME280;63465;50.862;6.220;2023-06-10T06:36:01;99792.47;;;21.08;96.43
74905;BME280;63465;50.862;6.220;2023-06-10T06:38:26;99797.31;;;21.24;98.26
74905;BME280;63465;50.862;6.220;2023-06-10T06:40:54;99797.72;;;21.39;96.06
74905;BME280;63465;50.862;6.220;2023-06-10T06:43:19;99805.56;;;21.32;95.24
74905;BME280;63465;50.862;6.220;2023-06-10T06:45:45;99802.59;;;22.32;90.38
74905;BME280;63465;50.862;6.220;2023-06-10T06:48:11;99809.69;;;22.23;88.44
74905;BME280;63465;50.862;6.220;2023-06-10T06:50:37;99811.50;;;22.70;86.50
74905;BME280;63465;50.862;6.220;2023-06-10T06:53:03;99817.06;;;22.96;83.89
74905;BME280;63465;50.862;6.220;2023-06-10T06:55:29;99810.91;;;23.84;77.72
74905;BME280;63465;50.862;6.220;2023-06-10T06:57:54;99819.75;;;22.96;81.34
74905;BME280;63465;50.862;6.220;2023-06-10T07:00:20;99807.97;;;24.21;74.18
74905;BME280;63465;50.862;6.220;2023-06-10T07:02:46;99812.50;;;23.86;74.38
74905;BME280;63465;50.862;6.220;2023-06-10T07:05:11;99813.03;;;24.51;73.57
74905;BME280;63465;50.862;6.220;2023-06-10T07:07:36;99818.69;;;23.97;75.09
74905;BME280;63465;50.862;6.220;2023-06-10T07:10:01;99819.69;;;23.96;74.88
74905;BME280;63465;50.862;6.220;2023-06-10T07:12:27;99815.25;;;23.95;75.38
74905;BME280;63465;50.862;6.220;2023-06-10T07:14:52;99816.09;;;24.90;73.60
74905;BME280;63465;50.862;6.220;2023-06-10T07:17:17;99810.56;;;25.08;72.28
74905;BME280;63465;50.862;6.220;2023-06-10T07:19:44;99812.88;;;24.95;69.13
74905;BME280;63465;50.862;6.220;2023-06-10T07:22:09;99805.13;;;25.25;68.12
74905;BME280;63465;50.862;6.220;2023-06-10T07:24:34;99817.03;;;24.65;73.65
74905;BME280;63465;50.862;6.220;2023-06-10T07:27:00;99818.38;;;25.28;68.46
74905;BME280;63465;50.862;6.220;2023-06-10T07:29:25;99815.53;;;26.04;65.30
74905;BME280;63465;50.862;6.220;2023-06-10T07:31:50;99818.28;;;24.87;69.34
74905;BME280;63465;50.862;6.220;2023-06-10T07:34:16;99811.81;;;25.72;66.97
74905;BME280;63465;50.862;6.220;2023-06-10T07:36:41;99816.00;;;25.25;67.09
74905;BME280;63465;50.862;6.220;2023-06-10T07:39:06;99804.34;;;25.41;67.64
74905;BME280;63465;50.862;6.220;2023-06-10T07:41:32;99809.59;;;25.59;66.30
74905;BME280;63465;50.862;6.220;2023-06-10T07:43:58;99807.94;;;26.47;62.09
74905;BME280;63465;50.862;6.220;2023-06-10T07:46:24;99811.63;;;25.73;66.56
74905;BME280;63465;50.862;6.220;2023-06-10T07:48:49;99815.13;;;26.23;64.52
74905;BME280;63465;50.862;6.220;2023-06-10T07:51:16;99804.03;;;26.49;63.16
74905;BME280;63465;50.862;6.220;2023-06-10T07:53:41;99810.56;;;26.24;62.32
74905;BME280;63465;50.862;6.220;2023-06-10T07:56:07;99811.94;;;26.67;59.68
74905;BME280;63465;50.862;6.220;2023-06-10T07:58:32;99808.59;;;26.57;58.00
74905;BME280;63465;50.862;6.220;2023-06-10T08:00:57;99809.31;;;26.82;60.23
74905;BME280;63465;50.862;6.220;2023-06-10T08:03:23;99802.38;;;26.32;60.23
74905;BME280;63465;50.862;6.220;2023-06-10T08:05:48;99808.81;;;26.31;57.80
74905;BME280;63465;50.862;6.220;2023-06-10T08:08:14;99807.56;;;27.21;57.34
74905;BME280;63465;50.862;6.220;2023-06-10T08:10:39;99805.19;;;27.49;53.49
74905;BME280;63465;50.862;6.220;2023-06-10T08:13:04;99809.75;;;27.72;51.76
74905;BME280;63465;50.862;6.220;2023-06-10T08:15:29;99809.50;;;26.81;54.08
74905;BME280;63465;50.862;6.220;2023-06-10T08:17:55;99810.84;;;27.63;51.99
74905;BME280;63465;50.862;6.220;2023-06-10T08:20:21;99803.28;;;27.27;52.76
74905;BME280;63465;50.862;6.220;2023-06-10T08:22:47;99793.94;;;28.50;50.46
74905;BME280;63465;50.862;6.220;2023-06-10T08:25:12;99802.97;;;28.21;49.01
74905;BME280;63465;50.862;6.220;2023-06-10T08:27:37;99810.78;;;27.71;50.38
74905;BME280;63465;50.862;6.220;2023-06-10T08:30:03;99801.63;;;27.64;51.97
74905;BME280;63465;50.862;6.220;2023-06-10T08:32:29;99805.78;;;28.13;49.84
74905;BME280;63465;50.862;6.220;2023-06-10T08:34:55;99800.63;;;28.33;49.32
74905;BME280;63465;50.862;6.220;2023-06-10T08:37:20;99808.78;;;27.65;50.71
74905;BME280;63465;50.862;6.220;2023-06-10T08:39:45;99808.63;;;28.04;49.56
74905;BME280;63465;50.862;6.220;2023-06-10T08:42:28;99800.31;;;27.98;49.43
74905;BME280;63465;50.862;6.220;2023-06-10T08:45:00;99808.03;;;29.42;47.58
74905;BME280;63465;50.862;6.220;2023-06-10T08:47:29;99806.09;;;28.62;45.85
74905;BME280;63465;50.862;6.220;2023-06-10T08:49:56;99812.03;;;28.36;48.47
74905;BME280;63465;50.862;6.220;2023-06-10T08:52:29;99811.25;;;28.72;46.16
74905;BME280;63465;50.862;6.220;2023-06-10T08:57:34;99811.44;;;28.56;47.44
74905;BME280;63465;50.862;6.220;2023-06-10T09:00:00;99812.28;;;28.71;48.05
74905;BME280;63465;50.862;6.220;2023-06-10T09:02:27;99814.66;;;29.11;45.53
74905;BME280;63465;50.862;6.220;2023-06-10T09:04:53;99811.50;;;29.29;46.24
74905;BME280;63465;50.862;6.220;2023-06-10T09:07:21;99813.00;;;28.95;45.43
74905;BME280;63465;50.862;6.220;2023-06-10T09:09:51;99813.59;;;28.90;45.00
74905;BME280;63465;50.862;6.220;2023-06-10T09:12:19;99812.31;;;29.08;45.21
74905;BME280;63465;50.862;6.220;2023-06-10T09:14:44;99813.41;;;29.50;45.06
74905;BME280;63465;50.862;6.220;2023-06-10T09:17:10;99814.56;;;29.84;44.36
74905;BME280;63465;50.862;6.220;2023-06-10T09:19:36;99812.44;;;29.36;45.26
74905;BME280;63465;50.862;6.220;2023-06-10T09:22:02;99809.53;;;29.66;45.54
74905;BME280;63465;50.862;6.220;2023-06-10T09:24:27;99811.81;;;29.62;43.25
74905;BME280;63465;50.862;6.220;2023-06-10T09:27:04;99813.56;;;29.70;43.88
74905;BME280;63465;50.862;6.220;2023-06-10T09:29:31;99816.31;;;29.92;42.91
74905;BME280;63465;50.862;6.220;2023-06-10T09:31:56;99812.38;;;30.36;41.77
74905;BME280;63465;50.862;6.220;2023-06-10T09:34:25;99804.84;;;29.81;42.36
74905;BME280;63465;50.862;6.220;2023-06-10T09:36:50;99811.00;;;30.18;41.68
74905;BME280;63465;50.862;6.220;2023-06-10T09:39:17;99809.44;;;30.37;41.09
74905;BME280;63465;50.862;6.220;2023-06-10T09:41:45;99803.81;;;29.17;43.70
74905;BME280;63465;50.862;6.220;2023-06-10T09:44:18;99807.16;;;30.41;43.54
74905;BME280;63465;50.862;6.220;2023-06-10T09:46:48;99808.56;;;29.52;46.78
74905;BME280;63465;50.862;6.220;2023-06-10T09:49:16;99805.31;;;30.48;45.41
74905;BME280;63465;50.862;6.220;2023-06-10T09:51:54;99809.03;;;29.34;47.83
74905;BME280;63465;50.862;6.220;2023-06-10T09:54:20;99811.03;;;29.68;45.25
74905;BME280;63465;50.862;6.220;2023-06-10T09:56:47;99806.22;;;29.70;46.79
74905;BME280;63465;50.862;6.220;2023-06-10T09:59:13;99803.41;;;30.42;45.46
74905;BME280;63465;50.862;6.220;2023-06-10T10:01:38;99809.31;;;29.89;45.57
74905;BME280;63465;50.862;6.220;2023-06-10T10:04:04;99811.34;;;30.37;43.62
74905;BME280;63465;50.862;6.220;2023-06-10T10:06:30;99808.44;;;29.82;44.66
74905;BME280;63465;50.862;6.220;2023-06-10T10:08:55;99811.81;;;30.12;39.87
74905;BME280;63465;50.862;6.220;2023-06-10T10:11:21;99812.88;;;30.11;40.73
74905;BME280;63465;50.862;6.220;2023-06-10T10:13:48;99809.09;;;30.47;40.64
74905;BME280;63465;50.862;6.220;2023-06-10T10:16:16;99807.59;;;30.93;39.36
74905;BME280;63465;50.862;6.220;2023-06-10T10:18:46;99805.66;;;30.38;40.89
74905;BME280;63465;50.862;6.220;2023-06-10T10:21:13;99798.84;;;30.28;39.99
74905;BME280;63465;50.862;6.220;2023-06-10T10:23:53;99796.69;;;30.51;40.43
74905;BME280;63465;50.862;6.220;2023-06-10T10:26:21;99796.34;;;29.69;41.73
74905;BME280;63465;50.862;6.220;2023-06-10T10:28:51;99798.03;;;31.30;39.46
74905;BME280;63465;50.862;6.220;2023-06-10T10:31:19;99806.44;;;31.22;38.79
74905;BME280;63465;50.862;6.220;2023-06-10T10:36:16;99802.25;;;30.71;37.08
74905;BME280;63465;50.862;6.220;2023-06-10T10:38:41;99803.50;;;31.17;37.25
74905;BME280;63465;50.862;6.220;2023-06-10T10:41:08;99800.06;;;30.18;37.92
74905;BME280;63465;50.862;6.220;2023-06-10T10:43:34;99787.13;;;30.05;38.87
74905;BME280;63465;50.862;6.220;2023-06-10T10:46:01;99788.16;;;30.81;37.92
74905;BME280;63465;50.862;6.220;2023-06-10T10:48:37;99787.31;;;31.89;36.52
74905;BME280;63465;50.862;6.220;2023-06-10T10:51:03;99788.59;;;31.67;35.44
74905;BME280;63465;50.862;6.220;2023-06-10T10:53:29;99793.81;;;31.28;37.01
74905;BME280;63465;50.862;6.220;2023-06-10T10:56:02;99783.50;;;32.10;36.15
74905;BME280;63465;50.862;6.220;2023-06-10T10:58:29;99786.66;;;31.40;37.64
74905;BME280;63465;50.862;6.220;2023-06-10T11:00:55;99792.06;;;31.07;37.07
74905;BME280;63465;50.862;6.220;2023-06-10T11:03:20;99791.91;;;31.28;35.19
74905;BME280;63465;50.862;6.220;2023-06-10T11:05:47;99781.84;;;31.82;34.54
74905;BME280;63465;50.862;6.220;2023-06-10T11:11:27;99786.53;;;32.67;33.33
74905;BME280;63465;50.862;6.220;2023-06-10T11:16:39;99774.84;;;31.93;35.36
74905;BME280;63465;50.862;6.220;2023-06-10T11:19:04;99774.66;;;32.74;35.01
74905;BME280;63465;50.862;6.220;2023-06-10T11:21:30;99774.88;;;31.80;34.39
74905;BME280;63465;50.862;6.220;2023-06-10T11:23:57;99769.91;;;32.94;33.97
74905;BME280;63465;50.862;6.220;2023-06-10T11:31:26;99767.88;;;32.76;32.20
74905;BME280;63465;50.862;6.220;2023-06-10T11:33:53;99759.06;;;32.54;32.24
74905;BME280;63465;50.862;6.220;2023-06-10T11:36:19;99755.75;;;32.39;33.45
74905;BME280;63465;50.862;6.220;2023-06-10T11:38:45;99753.88;;;33.23;33.59
74905;BME280;63465;50.862;6.220;2023-06-10T11:41:13;99751.44;;;32.63;33.66
74905;BME280;63465;50.862;6.220;2023-06-10T11:43:46;99745.69;;;32.71;32.08
74905;BME280;63465;50.862;6.220;2023-06-10T11:46:12;99752.13;;;32.45;29.84
74905;BME280;63465;50.862;6.220;2023-06-10T11:48:38;99750.84;;;31.69;28.60
74905;BME280;63465;50.862;6.220;2023-06-10T11:51:07;99744.88;;;31.25;28.11
74905;BME280;63465;50.862;6.220;2023-06-10T11:53:33;99749.75;;;31.56;29.67
74905;BME280;63465;50.862;6.220;2023-06-10T11:55:59;99748.91;;;31.49;31.08
74905;BME280;63465;50.862;6.220;2023-06-10T11:58:24;99746.56;;;31.26;31.29
74905;BME280;63465;50.862;6.220;2023-06-10T12:00:51;99740.88;;;31.74;31.76
74905;BME280;63465;50.862;6.220;2023-06-10T12:03:18;99741.06;;;31.19;33.67
74905;BME280;63465;50.862;6.220;2023-06-10T12:06:01;99736.41;;;31.13;33.87
74905;BME280;63465;50.862;6.220;2023-06-10T12:08:28;99743.09;;;30.84;33.05
74905;BME280;63465;50.862;6.220;2023-06-10T12:10:54;99735.84;;;30.14;32.83
74905;BME280;63465;50.862;6.220;2023-06-10T12:13:20;99741.53;;;31.43;32.01
74905;BME280;63465;50.862;6.220;2023-06-10T12:15:46;99740.22;;;30.99;31.50
74905;BME280;63465;50.862;6.220;2023-06-10T12:20:44;99735.03;;;30.69;33.08
74905;BME280;63465;50.862;6.220;2023-06-10T12:23:10;99736.34;;;30.86;34.22
74905;BME280;63465;50.862;6.220;2023-06-10T12:25:35;99713.66;;;31.06;32.04
74905;BME280;63465;50.862;6.220;2023-06-10T12:28:02;99727.88;;;30.68;31.96
74905;BME280;63465;50.862;6.220;2023-06-10T12:30:28;99728.66;;;31.17;31.83
74905;BME280;63465;50.862;6.220;2023-06-10T12:32:54;99728.63;;;31.10;31.03
74905;BME280;63465;50.862;6.220;2023-06-10T12:35:21;99730.97;;;31.40;31.04
74905;BME280;63465;50.862;6.220;2023-06-10T12:38:03;99726.03;;;30.88;30.97
74905;BME280;63465;50.862;6.220;2023-06-10T12:40:33;99724.47;;;30.66;30.77
74905;BME280;63465;50.862;6.220;2023-06-10T12:43:00;99727.16;;;31.07;33.22
74905;BME280;63465;50.862;6.220;2023-06-10T12:45:46;99717.34;;;30.71;31.63
74905;BME280;63465;50.862;6.220;2023-06-10T12:48:18;99709.78;;;30.93;32.81
74905;BME280;63465;50.862;6.220;2023-06-10T12:50:47;99725.50;;;31.67;32.79
74905;BME280;63465;50.862;6.220;2023-06-10T12:53:12;99720.75;;;30.80;32.56
74905;BME280;63465;50.862;6.220;2023-06-10T12:55:38;99717.28;;;30.10;33.70
74905;BME280;63465;50.862;6.220;2023-06-10T12:58:03;99718.28;;;29.74;31.90
74905;BME280;63465;50.862;6.220;2023-06-10T13:00:29;99708.53;;;30.96;31.22
74905;BME280;63465;50.862;6.220;2023-06-10T13:03:00;99719.88;;;30.73;31.71
74905;BME280;63465;50.862;6.220;2023-06-10T13:05:26;99715.78;;;30.49;31.03
74905;BME280;63465;50.862;6.220;2023-06-10T13:07:51;99709.13;;;30.78;32.03
74905;BME280;63465;50.862;6.220;2023-06-10T13:10:17;99708.41;;;31.78;32.57
74905;BME280;63465;50.862;6.220;2023-06-10T13:12:43;99712.16;;;31.50;31.59
74905;BME280;63465;50.862;6.220;2023-06-10T13:15:09;99703.94;;;31.10;31.53